Terminal Aerodrome Forecast
Issued by NWS

Home | Current Version | Previous Version | Text Only | Print | Product List | Glossary On
Versions: 1 2 3 4 5 6 7 8 9 10 11 12 13 14
000
FTAK31 PANC 272330
TAFAAQ
TAF
PAAQ 272330Z 2800/2824 15008KT P6SM VCSH BKN050
      TEMPO 2800/2803 15010G18KT
     FM280300 15010G18KT P6SM -RA BKN045
     FM281100 13005KT P6SM VCSH BKN045
     FM282300 15010G18KT P6SM VCSH BKN050=

USA.gov is the U.S. government's official web portal to all federal, state and local government web resources and services.